Time;durP1;ratioP1;P1;durP2;ratioP2;P2;SDS_P1;SDS_P2;PMS_P1;PMS_P2;Temp;Humidity;BMP_temperature;BMP_pressure;BME280_temperature;BME280_humidity;BME280_pressure;Samples;Min_cycle;Max_cycle;Signal;HPM_P1;HPM_P2
2023/08/19 00:01:08;;;;;;;13.60;8.40;;;;;;;23.83;59.10;101114.59;105512;1257;65014;-54
2023/08/19 00:03:37;;;;;;;15.50;8.10;;;;;;;23.83;58.88;101114.03;105931;1257;61996;-53
2023/08/19 00:06:06;;;;;;;11.50;8.40;;;;;;;23.86;58.80;101109.34;105605;1257;63784;-54
2023/08/19 00:08:34;;;;;;;11.50;8.10;;;;;;;23.88;58.84;101109.15;105537;1252;60367;-52
2023/08/19 00:11:03;;;;;;;10.10;8.80;;;;;;;23.85;59.13;101106.61;105731;1256;61435;-54
2023/08/19 00:13:30;;;;;;;11.30;8.40;;;;;;;23.80;59.42;101102.73;105423;1257;63621;-55
2023/08/19 00:15:58;;;;;;;10.10;8.50;;;;;;;23.76;59.80;101104.64;105485;1256;61350;-54
2023/08/19 00:18:27;;;;;;;10.00;7.60;;;;;;;23.75;60.20;101105.11;105450;1256;63874;-54
2023/08/19 00:20:55;;;;;;;11.20;8.00;;;;;;;23.77;60.51;101104.36;105504;1256;60649;-53
2023/08/19 00:23:23;;;;;;;9.40;7.40;;;;;;;23.76;60.57;101103.63;105840;1254;60488;-53
2023/08/19 00:25:51;;;;;;;11.30;7.60;;;;;;;23.74;60.86;101104.58;105369;1254;63628;-54
2023/08/19 00:28:18;;;;;;;11.80;8.50;;;;;;;23.71;60.83;101103.46;105447;1254;60530;-52
2023/08/19 00:30:46;;;;;;;10.20;8.00;;;;;;;23.68;60.98;101101.23;105411;1256;63939;-52
2023/08/19 00:33:13;;;;;;;12.90;8.20;;;;;;;23.63;61.20;101095.64;105431;1251;60589;-53
2023/08/19 00:35:42;;;;;;;13.10;7.90;;;;;;;23.61;61.21;101095.67;105704;1257;60504;-53
2023/08/19 00:38:09;;;;;;;9.30;7.80;;;;;;;23.63;61.25;101094.12;105448;1254;63675;-52
2023/08/19 00:40:37;;;;;;;11.30;8.10;;;;;;;23.67;61.37;101094.95;105468;1258;60451;-52
2023/08/19 00:43:05;;;;;;;12.00;8.80;;;;;;;23.67;61.34;101091.85;105429;1256;63852;-51
2023/08/19 00:45:33;;;;;;;9.20;8.20;;;;;;;23.64;61.54;101088.27;105418;1253;60607;-51
2023/08/19 00:48:02;;;;;;;10.40;7.80;;;;;;;23.61;61.48;101090.44;105469;1251;60489;-51
2023/08/19 00:50:30;;;;;;;12.60;8.20;;;;;;;23.58;61.69;101088.54;105700;1256;65076;-52
2023/08/19 00:52:58;;;;;;;13.70;8.90;;;;;;;23.57;61.75;101086.21;105467;1254;61323;-53
2023/08/19 00:55:25;;;;;;;12.80;8.50;;;;;;;23.60;61.83;101086.04;105591;1257;63812;-53
2023/08/19 00:57:52;;;;;;;12.10;8.60;;;;;;;23.64;61.91;101084.88;105314;1254;60396;-53
2023/08/19 01:00:20;;;;;;;10.40;8.80;;;;;;;23.65;61.79;101084.10;105315;1255;60616;-50
2023/08/19 01:02:47;;;;;;;12.00;9.10;;;;;;;23.62;61.60;101081.52;105297;1251;64846;-56
2023/08/19 01:05:15;;;;;;;10.30;8.40;;;;;;;23.61;61.77;101079.19;106761;1256;60448;-56
2023/08/19 01:07:48;;;;;;;11.20;9.00;;;;;;;23.60;61.57;101080.50;105246;1257;62434;-55
2023/08/19 01:10:31;;;;;;;11.40;9.50;;;;;;;23.59;61.47;101080.61;105397;1257;60559;-55
2023/08/19 01:13:10;;;;;;;12.20;8.60;;;;;;;23.62;61.35;101077.33;105268;1252;282279;-55
2023/08/19 01:28:51;;;;;;;10.60;8.50;;;;;;;23.73;61.66;101070.79;102743;1284;604299;-55
2023/08/19 01:31:19;;;;;;;14.00;9.70;;;;;;;24.22;60.29;101071.52;103826;1272;161417;-55
2023/08/19 01:33:47;;;;;;;12.00;9.70;;;;;;;24.20;60.09;101070.56;104664;1269;59411;-55
2023/08/19 01:36:32;;;;;;;15.00;9.90;;;;;;;24.14;59.96;101070.70;104120;1267;62089;-55
2023/08/19 01:39:05;;;;;;;14.30;9.40;;;;;;;24.08;59.87;101070.48;104250;1266;61507;-55
2023/08/19 01:41:32;;;;;;;11.10;9.40;;;;;;;24.05;59.72;101067.19;105045;1269;63726;-56
2023/08/19 01:44:00;;;;;;;14.10;10.10;;;;;;;24.05;59.67;101070.63;104084;1266;59372;-55
2023/08/19 01:46:27;;;;;;;13.10;10.20;;;;;;;24.03;59.69;101074.95;104254;1266;59414;-55
2023/08/19 01:48:55;;;;;;;11.80;9.10;;;;;;;23.98;59.82;101073.97;104235;1266;64144;-56
2023/08/19 01:51:22;;;;;;;12.30;10.30;;;;;;;23.93;60.02;101077.82;104303;1272;60203;-56
2023/08/19 01:53:50;;;;;;;13.70;10.10;;;;;;;23.88;60.07;101074.95;107092;1267;63799;-55
2023/08/19 01:56:17;;;;;;;13.60;10.00;;;;;;;23.86;60.19;101074.11;104215;1266;59860;-55
2023/08/19 01:58:45;;;;;;;10.70;9.40;;;;;;;23.87;60.23;101073.71;108271;1267;57470;-55
2023/08/19 02:01:13;;;;;;;15.00;10.50;;;;;;;23.89;60.25;101076.00;104687;1272;64165;-54
2023/08/19 02:03:40;;;;;;;13.00;9.80;;;;;;;23.85;60.40;101074.48;104163;1267;61352;-54
2023/08/19 02:06:08;;;;;;;13.90;10.60;;;;;;;23.80;60.74;101077.17;104243;1266;63706;-55
2023/08/19 02:08:35;;;;;;;14.10;10.50;;;;;;;23.75;60.95;101081.54;104403;1267;59756;-55
2023/08/19 02:11:03;;;;;;;12.20;9.40;;;;;;;23.70;61.11;101074.77;104419;1272;59676;-53
2023/08/19 02:13:30;;;;;;;14.40;10.30;;;;;;;23.68;61.18;101079.04;104352;1271;64081;-54
2023/08/19 02:15:58;;;;;;;12.90;10.10;;;;;;;23.68;61.40;101079.70;104401;1271;60179;-55
2023/08/19 02:18:28;;;;;;;14.40;10.40;;;;;;;23.66;61.49;101074.60;104377;1270;62488;-54
2023/08/19 02:20:55;;;;;;;10.80;9.70;;;;;;;23.63;61.58;101073.30;104574;1267;59765;-54
2023/08/19 02:23:23;;;;;;;12.00;10.30;;;;;;;23.61;61.69;101071.95;104471;1267;59708;-54
2023/08/19 02:25:52;;;;;;;13.70;10.60;;;;;;;23.56;61.47;101073.27;104308;1267;64091;-54
2023/08/19 02:28:19;;;;;;;13.30;9.40;;;;;;;23.48;61.67;101075.55;104069;1266;61354;-55
2023/08/19 02:30:47;;;;;;;12.40;10.30;;;;;;;23.46;61.84;101077.42;104392;1270;62836;-57
2023/08/19 02:33:14;;;;;;;12.10;9.60;;;;;;;23.46;61.92;101078.71;104460;1272;59708;-57
2023/08/19 02:35:49;;;;;;;11.50;9.50;;;;;;;23.46;62.10;101084.29;104657;1272;59656;-56
2023/08/19 02:38:16;;;;;;;12.10;9.40;;;;;;;23.45;62.24;101083.16;104722;1267;64227;-56
2023/08/19 02:40:50;;;;;;;13.00;10.70;;;;;;;23.43;62.31;101087.48;104352;1267;61361;-56
2023/08/19 02:43:18;;;;;;;18.80;10.50;;;;;;;23.42;62.33;101087.75;104541;1269;63686;-53
2023/08/19 02:45:46;;;;;;;13.00;10.60;;;;;;;23.41;62.15;101085.84;104300;1266;59776;-56
2023/08/19 02:48:14;;;;;;;14.20;9.90;;;;;;;23.38;62.16;101086.31;104387;1272;59701;-59
2023/08/19 02:50:42;;;;;;;11.10;9.00;;;;;;;23.34;62.20;101089.48;104333;1267;62944;-60
2023/08/19 02:53:10;;;;;;;17.00;9.40;;;;;;;23.31;62.30;101092.68;104396;1271;60160;-59
2023/08/19 02:55:41;;;;;;;13.10;10.30;;;;;;;23.28;62.49;101095.38;104323;1269;63766;-59
2023/08/19 02:58:09;;;;;;;10.40;9.40;;;;;;;23.26;62.62;101097.45;104418;1272;59688;-60
2023/08/19 03:00:37;;;;;;;13.60;10.70;;;;;;;23.25;62.81;101099.89;104427;1267;59753;-60
2023/08/19 03:03:05;;;;;;;13.70;10.40;;;;;;;23.24;62.85;101095.93;104434;1266;64272;-59
2023/08/19 03:05:39;;;;;;;11.90;10.60;;;;;;;23.23;62.90;101099.02;104405;1272;62739;-60
2023/08/19 03:08:07;;;;;;;13.60;10.10;;;;;;;23.24;62.91;101101.94;104480;1268;63762;-60
2023/08/19 03:10:36;;;;;;;12.60;10.30;;;;;;;23.27;63.08;101103.34;104807;1269;59904;-60
2023/08/19 03:13:04;;;;;;;14.00;10.50;;;;;;;23.31;63.09;101103.13;104504;1267;59592;-59
2023/08/19 03:15:32;;;;;;;15.10;10.70;;;;;;;23.30;63.22;101107.87;104280;1266;62839;-60
2023/08/19 03:18:00;;;;;;;13.90;10.00;;;;;;;23.30;63.45;101107.32;104399;1271;60943;-59
2023/08/19 03:20:28;;;;;;;13.00;10.80;;;;;;;23.31;63.28;101105.04;104191;1267;63749;-60
2023/08/19 03:22:56;;;;;;;13.60;10.10;;;;;;;23.34;63.32;101107.39;104427;1272;59598;-59
2023/08/19 03:25:23;;;;;;;12.80;10.60;;;;;;;23.37;63.25;101104.52;104405;1271;59753;-60
2023/08/19 03:27:51;;;;;;;12.50;10.90;;;;;;;23.41;63.55;101104.76;105087;1267;64655;-59
2023/08/19 03:30:19;;;;;;;16.90;10.50;;;;;;;23.46;63.62;101102.71;104326;1267;61415;-60
2023/08/19 03:32:46;;;;;;;11.70;10.20;;;;;;;23.49;63.72;101102.09;104409;1272;63646;-60
2023/08/19 03:35:14;;;;;;;13.50;9.90;;;;;;;23.53;63.84;101100.72;104386;1267;59726;-60
2023/08/19 03:37:41;;;;;;;13.60;11.10;;;;;;;23.56;64.07;101096.54;104372;1267;59737;-59
2023/08/19 03:40:10;;;;;;;12.10;9.90;;;;;;;23.60;64.09;101096.11;104373;1266;64067;-59
2023/08/19 03:42:37;;;;;;;14.20;10.00;;;;;;;23.63;64.09;101094.13;104345;1272;60119;-64
2023/08/19 03:45:05;;;;;;;16.50;12.00;;;;;;;23.64;64.12;101092.52;104285;1269;63665;-57
2023/08/19 03:47:33;;;;;;;15.50;11.00;;;;;;;23.66;64.07;101093.77;104278;1266;59793;-59
2023/08/19 03:50:01;;;;;;;13.40;10.20;;;;;;;23.66;64.24;101092.16;104904;1269;62014;-62
2023/08/19 03:52:29;;;;;;;13.10;10.80;;;;;;;23.70;64.19;101095.02;104492;1267;64554;-59
2023/08/19 03:54:56;;;;;;;11.30;9.80;;;;;;;23.75;64.10;101092.80;104447;1267;61368;-60
2023/08/19 03:57:24;;;;;;;13.10;10.00;;;;;;;23.82;64.03;101096.08;104380;1272;62495;-60
2023/08/19 03:59:51;;;;;;;13.30;11.70;;;;;;;23.88;63.87;101095.46;104685;1268;59737;-60
2023/08/19 04:02:19;;;;;;;15.00;11.00;;;;;;;23.91;63.74;101090.48;104326;1267;59801;-60
2023/08/19 04:05:09;;;;;;;15.20;10.90;;;;;;;23.94;63.75;101090.47;104427;1271;64152;-64
2023/08/19 04:07:37;;;;;;;12.80;10.80;;;;;;;23.98;63.57;101091.74;105340;1272;60300;-63
2023/08/19 04:10:06;;;;;;;14.10;10.60;;;;;;;24.04;63.52;101090.68;104327;1272;62470;-63
2023/08/19 04:12:33;;;;;;;15.30;10.30;;;;;;;24.09;63.20;101094.66;104523;1265;59640;-63
2023/08/19 04:15:01;;;;;;;11.80;10.40;;;;;;;24.11;62.83;101098.48;104465;1270;59600;-64
2023/08/19 04:17:28;;;;;;;15.40;10.80;;;;;;;24.10;62.80;101096.43;104462;1267;62872;-67
2023/08/19 04:19:57;;;;;;;13.20;11.50;;;;;;;24.08;62.84;101102.25;105447;1260;61325;-59
2023/08/19 04:22:24;;;;;;;12.10;10.50;;;;;;;24.09;63.01;101100.15;105030;1257;62529;-62
2023/08/19 04:24:55;;;;;;;13.50;10.80;;;;;;;24.18;63.22;101097.15;105033;1260;59756;-62
2023/08/19 04:27:23;;;;;;;15.60;10.80;;;;;;;24.28;63.38;101097.10;105003;1262;59752;-57
2023/08/19 04:29:51;;;;;;;18.80;12.10;;;;;;;24.38;63.35;101098.41;106019;1260;66081;-64
2023/08/19 04:32:19;;;;;;;15.20;11.60;;;;;;;24.46;63.12;101095.65;104937;1257;62104;-58
2023/08/19 04:34:47;;;;;;;13.20;11.00;;;;;;;24.51;63.01;101095.40;104860;1257;64310;-63
2023/08/19 04:37:14;;;;;;;14.20;12.10;;;;;;;24.53;62.90;101093.00;104773;1257;59682;-62
2023/08/19 04:39:42;;;;;;;12.90;11.50;;;;;;;24.54;62.80;101092.19;105060;1260;59535;-63
2023/08/19 04:42:20;;;;;;;12.80;11.40;;;;;;;24.60;62.87;101090.91;104981;1257;64118;-63
2023/08/19 04:44:48;;;;;;;15.00;11.70;;;;;;;24.64;62.62;101093.38;105194;1262;62266;-65
2023/08/19 04:47:16;;;;;;;17.80;12.10;;;;;;;24.67;62.46;101092.20;104963;1257;62774;-65
2023/08/19 04:49:44;;;;;;;15.10;12.80;;;;;;;24.69;62.37;101092.25;104883;1260;59564;-65
2023/08/19 04:52:11;;;;;;;15.60;13.30;;;;;;;24.70;61.99;101090.36;105027;1262;59812;-63
2023/08/19 04:54:39;;;;;;;13.70;12.20;;;;;;;24.67;61.52;101091.92;104709;1260;62827;-64
2023/08/19 04:57:06;;;;;;;13.80;11.80;;;;;;;24.65;61.65;101088.46;104938;1259;61752;-63
2023/08/19 04:59:34;;;;;;;14.70;13.00;;;;;;;24.65;61.59;101088.79;104685;1265;62623;-61
2023/08/19 05:02:02;;;;;;;15.60;11.50;;;;;;;24.68;61.57;101088.73;104721;1263;59684;-62
2023/08/19 05:04:30;;;;;;;17.50;14.60;;;;;;;24.72;61.03;101086.72;105046;1262;62315;-60
2023/08/19 05:06:57;;;;;;;14.70;12.50;;;;;;;24.73;60.57;101087.23;104844;1257;64060;-62
2023/08/19 05:09:25;;;;;;;16.10;12.40;;;;;;;24.76;60.46;101091.38;104650;1257;60111;-65
2023/08/19 05:11:52;;;;;;;16.10;12.90;;;;;;;24.77;60.39;101091.55;104605;1259;63733;-67
2023/08/19 05:14:20;;;;;;;15.00;12.10;;;;;;;24.78;60.21;101091.75;106342;1259;59682;-63
2023/08/19 05:16:48;;;;;;;14.50;11.30;;;;;;;24.82;60.07;101095.89;104821;1260;59810;-63
2023/08/19 05:19:17;;;;;;;15.00;11.70;;;;;;;24.89;60.00;101094.58;104911;1262;62851;-58
2023/08/19 05:21:48;;;;;;;13.50;11.50;;;;;;;24.95;60.03;101096.56;104997;1259;60112;-56
2023/08/19 05:24:16;;;;;;;16.20;11.70;;;;;;;25.00;59.89;101099.48;105470;1257;64403;-56
2023/08/19 05:26:44;;;;;;;14.40;10.90;;;;;;;25.04;59.72;101100.73;105454;1258;59762;-59
2023/08/19 05:29:12;;;;;;;15.60;12.20;;;;;;;25.07;59.41;101101.14;105430;1262;59574;-57
2023/08/19 05:31:41;;;;;;;15.50;13.90;;;;;;;25.09;59.15;101102.83;105136;1257;64219;-58
2023/08/19 05:34:10;;;;;;;13.20;11.60;;;;;;;25.11;59.13;101100.40;105316;1262;61599;-57
2023/08/19 05:36:37;;;;;;;12.80;11.40;;;;;;;25.18;59.02;101100.21;104837;1261;63684;-56
2023/08/19 05:39:05;;;;;;;14.60;12.20;;;;;;;25.24;58.68;101097.42;104663;1264;61367;-57
2023/08/19 05:41:32;;;;;;;12.00;10.70;;;;;;;25.27;58.73;101098.52;104893;1259;60447;-57
2023/08/19 05:44:00;;;;;;;13.30;11.50;;;;;;;25.29;58.82;101104.16;104691;1262;64936;-57
2023/08/19 05:46:28;;;;;;;13.90;12.10;;;;;;;25.30;58.61;101106.38;104826;1262;60630;-56
2023/08/19 05:48:55;;;;;;;12.30;10.80;;;;;;;25.31;58.56;101107.34;104727;1258;62606;-56
2023/08/19 05:51:23;;;;;;;12.70;11.40;;;;;;;25.36;58.64;101107.05;108667;1257;58463;-55
2023/08/19 05:53:50;;;;;;;13.00;11.00;;;;;;;25.45;58.83;101108.02;108701;1257;58488;-56
2023/08/19 05:56:18;;;;;;;13.80;11.60;;;;;;;25.56;58.54;101113.14;106412;1257;65434;-55
2023/08/19 05:58:46;;;;;;;12.70;11.20;;;;;;;25.65;58.36;101114.13;108762;1257;61914;-55
2023/08/19 06:01:13;;;;;;;14.20;12.70;;;;;;;25.71;58.12;101112.46;108702;1257;62542;-56
2023/08/19 06:03:41;;;;;;;13.00;11.70;;;;;;;25.77;58.22;101114.35;108701;1257;58610;-53
2023/08/19 06:06:08;;;;;;;16.80;12.10;;;;;;;25.84;57.94;101111.27;105592;1257;61178;-55
2023/08/19 06:08:35;;;;;;;13.60;12.20;;;;;;;25.92;58.03;101107.10;104785;1258;63706;-55
2023/08/19 06:11:07;;;;;;;13.30;10.20;;;;;;;26.02;57.81;101106.34;104798;1263;62283;-56
2023/08/19 06:13:34;;;;;;;13.30;11.10;;;;;;;26.13;57.71;101104.34;105332;1262;62526;-55
2023/08/19 06:16:06;;;;;;;14.00;11.40;;;;;;;26.22;57.52;101105.80;105528;1257;60542;-56
2023/08/19 06:18:34;;;;;;;15.20;11.50;;;;;;;26.26;57.48;101102.93;105297;1257;60560;-56
2023/08/19 06:21:02;;;;;;;12.50;11.10;;;;;;;26.34;57.14;101105.91;104944;1265;64947;-55
2023/08/19 06:23:30;;;;;;;13.20;11.60;;;;;;;26.38;57.30;101109.63;105034;1262;60419;-58
2023/08/19 06:25:58;;;;;;;13.50;11.00;;;;;;;26.41;57.25;101114.52;104822;1262;63762;-55
2023/08/19 06:28:25;;;;;;;12.40;11.10;;;;;;;26.46;56.97;101119.26;104791;1259;60571;-54
2023/08/19 06:30:53;;;;;;;13.10;11.00;;;;;;;26.52;57.03;101119.98;104762;1262;60447;-56
2023/08/19 06:33:21;;;;;;;13.80;12.30;;;;;;;26.57;57.20;101123.27;104841;1260;64870;-56
2023/08/19 06:35:49;;;;;;;16.20;12.10;;;;;;;26.60;57.40;101125.48;104897;1257;61427;-56
2023/08/19 06:38:23;;;;;;;13.20;11.90;;;;;;;26.64;57.24;101126.10;105138;1262;62664;-56
2023/08/19 06:41:10;;;;;;;12.20;10.70;;;;;;;26.65;57.15;101129.12;104833;1263;60325;-55
2023/08/19 06:43:38;;;;;;;12.80;11.40;;;;;;;26.69;56.90;101126.20;105063;1260;60594;-56
2023/08/19 06:46:06;;;;;;;13.00;11.60;;;;;;;26.75;57.04;101127.19;105047;1260;65040;-57
2023/08/19 06:48:34;;;;;;;13.50;11.80;;;;;;;26.80;57.05;101129.74;104918;1262;60572;-57
2023/08/19 06:51:03;;;;;;;13.70;12.30;;;;;;;26.84;56.78;101129.95;104868;1263;62543;-56
2023/08/19 06:53:31;;;;;;;14.60;12.60;;;;;;;26.89;56.59;101130.38;105023;1259;60482;-56
2023/08/19 06:56:43;;;;;;;16.00;13.30;;;;;;;26.94;56.39;101131.85;105014;1260;60538;-56
2023/08/19 06:59:14;;;;;;;14.00;10.80;;;;;;;26.99;56.07;101131.13;105287;1260;64990;-55
2023/08/19 07:01:46;;;;;;;14.60;11.90;;;;;;;27.06;55.58;101133.94;104719;1262;61402;-55
2023/08/19 07:04:13;;;;;;;12.70;11.40;;;;;;;27.13;55.63;101139.22;104737;1257;63752;-55
2023/08/19 07:06:42;;;;;;;13.30;11.40;;;;;;;27.19;55.44;101140.07;104997;1263;60552;-54
2023/08/19 07:09:11;;;;;;;19.40;11.30;;;;;;;27.23;55.42;101140.02;104834;1262;60476;-55
2023/08/19 07:11:39;;;;;;;14.30;11.40;;;;;;;27.29;55.44;101139.02;104413;1260;66035;-55
2023/08/19 07:14:07;;;;;;;12.80;10.80;;;;;;;27.40;55.03;101134.80;105300;1260;61394;-55
2023/08/19 07:16:34;;;;;;;14.00;11.90;;;;;;;27.49;54.86;101129.01;105931;1260;64210;-55
2023/08/19 07:19:03;;;;;;;14.80;11.50;;;;;;;27.57;54.88;101130.33;104790;1263;60899;-54
2023/08/19 07:21:31;;;;;;;16.80;11.20;;;;;;;27.68;54.93;101131.80;104956;1265;61244;-54
2023/08/19 07:23:59;;;;;;;12.40;11.10;;;;;;;27.76;54.47;101134.29;105057;1258;63741;-54
2023/08/19 07:26:26;;;;;;;12.70;11.20;;;;;;;27.81;54.31;101128.80;104830;1265;61318;-54
2023/08/19 07:28:54;;;;;;;14.30;11.60;;;;;;;27.86;53.99;101131.60;104824;1259;63750;-56
2023/08/19 07:31:22;;;;;;;15.30;11.20;;;;;;;27.93;54.17;101132.06;104653;1260;60578;-54
2023/08/19 07:33:50;;;;;;;11.70;9.50;;;;;;;28.03;53.70;101130.63;104842;1262;60556;-55
2023/08/19 07:36:17;;;;;;;14.80;11.10;;;;;;;28.11;53.27;101128.46;104771;1260;65064;-55
2023/08/19 07:38:47;;;;;;;14.80;11.60;;;;;;;28.16;53.14;101127.96;104641;1262;61437;-55
2023/08/19 07:41:15;;;;;;;12.70;10.90;;;;;;;28.22;52.99;101129.41;104773;1260;63754;-54
2023/08/19 07:43:42;;;;;;;16.40;12.20;;;;;;;28.27;52.53;101126.30;104745;1258;61693;-54
2023/08/19 07:46:15;;;;;;;14.40;11.20;;;;;;;28.28;52.48;101124.13;104899;1262;60412;-56
2023/08/19 07:48:46;;;;;;;13.10;11.40;;;;;;;28.35;52.56;101122.00;104677;1258;65878;-54
2023/08/19 07:51:13;;;;;;;13.60;12.10;;;;;;;28.40;52.39;101128.04;104741;1263;61580;-55
2023/08/19 07:53:41;;;;;;;14.30;11.10;;;;;;;28.40;51.95;101128.50;104626;1265;65236;-54
2023/08/19 07:56:09;;;;;;;15.10;11.90;;;;;;;28.42;52.00;101127.52;104546;1260;60466;-54
2023/08/19 07:59:15;;;;;;;14.20;12.70;;;;;;;28.46;52.13;101129.31;104699;1266;60342;-54
2023/08/19 08:01:59;;;;;;;12.60;11.10;;;;;;;28.50;51.90;101123.65;104142;1260;63665;-58
2023/08/19 08:04:58;;;;;;;13.20;11.80;;;;;;;28.57;51.78;101124.64;104653;1261;61664;-58
2023/08/19 08:07:52;;;;;;;14.30;10.90;;;;;;;28.67;51.63;101120.58;104682;1265;64424;-56
2023/08/19 08:10:24;;;;;;;13.20;11.40;;;;;;;28.75;51.56;101120.41;104840;1265;60464;-57
2023/08/19 08:12:54;;;;;;;13.40;10.50;;;;;;;28.81;51.10;101118.59;104793;1264;60374;-58
2023/08/19 08:15:22;;;;;;;12.50;10.60;;;;;;;28.79;51.14;101120.66;104475;1260;63637;-55
2023/08/19 08:17:50;;;;;;;14.80;10.30;;;;;;;28.86;51.02;101118.40;104691;1265;61521;-56
2023/08/19 08:20:17;;;;;;;13.10;11.30;;;;;;;28.96;50.73;101117.29;104484;1265;63756;-55
2023/08/19 08:22:45;;;;;;;13.40;11.70;;;;;;;29.02;50.68;101113.26;104588;1259;60466;-57
2023/08/19 08:25:12;;;;;;;13.30;10.40;;;;;;;29.07;50.13;101110.73;104603;1259;61009;-55
2023/08/19 08:27:40;;;;;;;13.00;11.60;;;;;;;29.13;50.38;101108.81;104682;1264;63730;-56
2023/08/19 08:30:08;;;;;;;13.90;10.50;;;;;;;29.13;50.11;101107.95;104689;1265;60620;-58
2023/08/19 08:32:36;;;;;;;11.40;10.20;;;;;;;29.13;50.09;101105.45;105030;1265;63210;-56
2023/08/19 08:35:04;;;;;;;14.60;11.20;;;;;;;29.19;49.80;101105.43;104551;1264;59224;-58
2023/08/19 08:38:09;;;;;;;12.30;10.70;;;;;;;29.23;49.63;101100.34;104913;1263;60508;-56
2023/08/19 08:40:46;;;;;;;13.00;11.80;;;;;;;29.28;49.51;101101.30;104177;1261;65408;-56
2023/08/19 08:43:13;;;;;;;14.20;11.40;;;;;;;29.35;49.42;101098.11;104386;1260;61460;-56
2023/08/19 08:48:52;;;;;;;11.20;9.90;;;;;;;29.37;48.67;101097.89;104491;1260;60427;-55
2023/08/19 08:51:20;;;;;;;12.60;10.80;;;;;;;29.44;49.01;101095.20;104776;1264;60458;-56
2023/08/19 08:53:48;;;;;;;13.80;10.70;;;;;;;29.53;48.84;101095.48;104833;1264;64989;-56
2023/08/19 08:56:16;;;;;;;13.60;10.50;;;;;;;29.59;48.45;101094.40;104421;1265;60427;-56
2023/08/19 08:58:43;;;;;;;11.40;10.20;;;;;;;29.65;48.35;101091.24;104364;1264;62523;-54
2023/08/19 09:01:11;;;;;;;12.30;10.40;;;;;;;29.73;48.35;101091.26;104643;1265;60894;-57
2023/08/19 09:03:39;;;;;;;11.90;10.50;;;;;;;29.79;47.78;101090.96;104668;1265;60452;-57
2023/08/19 09:06:15;;;;;;;15.00;10.90;;;;;;;29.87;48.05;101091.52;104976;1267;65482;-59
2023/08/19 09:08:48;;;;;;;12.30;10.80;;;;;;;29.97;48.37;101095.36;104653;1268;60455;-56
2023/08/19 09:11:20;;;;;;;11.90;10.70;;;;;;;30.08;47.69;101094.95;104573;1260;63808;-55
2023/08/19 09:13:51;;;;;;;18.60;10.90;;;;;;;30.14;46.53;101096.69;104645;1262;60556;-56
2023/08/19 09:16:19;;;;;;;13.20;10.60;;;;;;;30.18;46.42;101092.65;105634;1260;60571;-56
2023/08/19 09:18:47;;;;;;;11.80;9.90;;;;;;;30.25;46.57;101095.67;104661;1265;64926;-56
2023/08/19 09:21:14;;;;;;;13.60;10.70;;;;;;;30.38;46.26;101097.29;107826;1259;61357;-57
2023/08/19 09:23:42;;;;;;;13.90;10.90;;;;;;;30.49;45.85;101096.30;104454;1259;63754;-56
2023/08/19 09:26:13;;;;;;;10.60;9.30;;;;;;;30.58;45.47;101093.66;104714;1265;60569;-58
2023/08/19 09:28:40;;;;;;;15.90;10.30;;;;;;;30.69;45.09;101096.97;104548;1257;61208;-56
2023/08/19 09:31:20;;;;;;;12.50;9.70;;;;;;;30.80;44.84;101097.38;104801;1258;63683;-56
2023/08/19 09:33:48;;;;;;;12.80;10.30;;;;;;;30.94;45.14;101095.15;104796;1266;61340;-56
2023/08/19 09:36:15;;;;;;;10.10;9.00;;;;;;;31.10;45.00;101087.89;104623;1263;62463;-57
2023/08/19 09:38:43;;;;;;;11.80;9.60;;;;;;;31.28;43.93;101089.30;104743;1262;60571;-57
2023/08/19 09:41:11;;;;;;;12.30;8.70;;;;;;;31.42;43.26;101086.06;104856;1263;60486;-58
2023/08/19 09:43:39;;;;;;;11.30;9.00;;;;;;;31.50;43.27;101082.26;105179;1262;63736;-58
2023/08/19 09:46:08;;;;;;;12.90;8.20;;;;;;;31.60;43.22;101079.06;106055;1263;61538;-58
2023/08/19 09:48:35;;;;;;;10.80;8.40;;;;;;;31.69;42.70;101079.92;108183;1262;62479;-59
2023/08/19 09:51:03;;;;;;;10.60;7.70;;;;;;;31.77;42.20;101080.44;104654;1263;60461;-56
2023/08/19 09:53:31;;;;;;;10.80;9.40;;;;;;;31.87;42.13;101075.68;104964;1265;60568;-56
2023/08/19 09:55:58;;;;;;;13.00;8.70;;;;;;;31.94;41.85;101070.40;104876;1262;64882;-58
2023/08/19 09:58:26;;;;;;;12.80;8.20;;;;;;;32.01;41.91;101069.91;108634;1257;61327;-58
2023/08/19 10:00:54;;;;;;;10.90;8.40;;;;;;;32.12;42.15;101072.05;108762;1262;62450;-56
2023/08/19 10:03:21;;;;;;;11.30;8.30;;;;;;;32.21;41.21;101066.85;108648;1263;58655;-57
2023/08/19 10:05:52;;;;;;;12.50;8.70;;;;;;;32.29;40.86;101063.42;108703;1258;58662;-57
2023/08/19 10:08:22;;;;;;;10.60;8.60;;;;;;;32.34;40.49;101060.33;108709;1262;66890;-56
2023/08/19 10:10:49;;;;;;;9.80;8.60;;;;;;;32.40;40.17;101065.31;108743;1262;61855;-58
2023/08/19 10:13:17;;;;;;;9.80;7.90;;;;;;;32.44;39.85;101063.56;106109;1262;62488;-56
2023/08/19 10:15:45;;;;;;;8.80;7.90;;;;;;;32.48;39.50;101059.80;104671;1258;60375;-54
2023/08/19 10:18:16;;;;;;;9.80;8.00;;;;;;;32.52;39.32;101059.20;105575;1257;61107;-63
2023/08/19 10:20:50;;;;;;;9.20;7.60;;;;;;;32.56;39.21;101055.65;108802;1257;64929;-57
2023/08/19 10:23:17;;;;;;;10.60;8.20;;;;;;;32.58;39.23;101054.38;108724;1257;60118;-57
2023/08/19 10:25:45;;;;;;;10.00;7.70;;;;;;;32.64;39.77;101056.33;108864;1262;62477;-56
2023/08/19 10:28:13;;;;;;;10.60;7.80;;;;;;;32.74;39.68;101052.08;106763;1263;60355;-57
2023/08/19 10:30:41;;;;;;;10.50;8.40;;;;;;;32.82;38.77;101050.96;104995;1262;61481;-58
2023/08/19 10:33:32;;;;;;;11.60;7.40;;;;;;;32.89;39.36;101048.75;106924;1262;64938;-55
2023/08/19 10:36:04;;;;;;;8.00;6.90;;;;;;;32.93;38.40;101047.94;104925;1258;62055;-56
2023/08/19 10:38:51;;;;;;;11.00;7.00;;;;;;;32.96;38.90;101049.00;105535;1257;62723;-55
2023/08/19 10:41:21;;;;;;;10.10;6.80;;;;;;;33.03;39.17;101050.82;105027;1263;60614;-52
2023/08/19 10:44:12;;;;;;;8.10;6.90;;;;;;;33.13;38.87;101049.62;105120;1262;60568;-54
2023/08/19 10:46:47;;;;;;;9.70;7.60;;;;;;;33.19;38.62;101048.05;105020;1258;65020;-55
2023/08/19 10:49:17;;;;;;;9.00;7.50;;;;;;;33.28;38.44;101044.00;105126;1266;61384;-55
2023/08/19 10:52:00;;;;;;;12.10;6.80;;;;;;;33.36;38.05;101041.71;105050;1263;62526;-53
2023/08/19 10:54:42;;;;;;;10.80;6.80;;;;;;;33.44;37.49;101037.91;104927;1258;61655;-55
2023/08/19 10:57:23;;;;;;;9.20;7.60;;;;;;;33.53;37.77;101036.19;104757;1257;60630;-55
2023/08/19 10:59:58;;;;;;;9.00;6.90;;;;;;;33.62;38.06;101033.58;106274;1262;64907;-57
2023/08/19 11:02:28;;;;;;;9.70;6.90;;;;;;;33.71;37.68;101030.89;108811;1257;72604;-54
2023/08/19 11:04:57;;;;;;;7.60;6.60;;;;;;;33.77;36.82;101027.16;107940;1258;62507;-57
2023/08/19 11:07:25;;;;;;;10.80;6.80;;;;;;;33.77;37.11;101027.88;104555;1263;60485;-53
2023/08/19 11:09:56;;;;;;;8.80;7.00;;;;;;;33.77;36.95;101029.56;108605;1258;58337;-54
2023/08/19 11:12:26;;;;;;;10.00;7.30;;;;;;;33.80;37.22;101028.77;104763;1260;66827;-55
2023/08/19 11:14:57;;;;;;;7.90;6.60;;;;;;;33.82;37.14;101026.21;107229;1257;61898;-54
2023/08/19 11:17:31;;;;;;;7.40;6.10;;;;;;;33.89;37.59;101024.51;104853;1262;63748;-57
2023/08/19 11:20:07;;;;;;;9.20;6.50;;;;;;;33.98;37.13;101025.22;105303;1263;60486;-55
2023/08/19 11:22:42;;;;;;;10.20;6.40;;;;;;;34.01;37.07;101026.49;105827;1257;61263;-56
2023/08/19 11:25:10;;;;;;;;;;;;;;;34.08;36.13;101021.13;104810;1263;63699;-55
2023/08/19 11:27:37;;;;;;;6.20;5.60;;;;;;;34.18;35.25;101017.20;104636;1263;60480;-55
2023/08/19 11:30:07;;;;;;;12.30;6.70;;;;;;;34.30;34.86;101015.25;104843;1257;64250;-53
2023/08/19 11:32:35;;;;;;;7.30;6.00;;;;;;;34.26;35.02;101013.88;108635;1257;59727;-55